createdAt,value
2024-03-04T00:05:48.611Z,8.38
2024-03-04T00:11:52.052Z,10.20
2024-03-04T00:17:57.196Z,9.18
2024-03-04T00:24:00.637Z,9.55
2024-03-04T00:30:05.821Z,10.57
2024-03-04T00:36:11.476Z,10.00
2024-03-04T00:42:15.037Z,9.90
2024-03-04T00:48:19.100Z,9.75
2024-03-04T00:54:24.376Z,9.18
2024-03-04T01:00:28.924Z,13.52
2024-03-04T01:06:32.470Z,11.40
2024-03-04T01:12:37.517Z,12.18
2024-03-04T01:18:41.711Z,13.05
2024-03-04T01:24:45.996Z,11.63
2024-03-04T01:30:51.852Z,14.90
2024-03-04T01:36:55.326Z,12.68
2024-03-04T01:42:59.001Z,13.18
2024-03-04T01:49:04.428Z,12.35
2024-03-04T01:55:08.471Z,19.85
2024-03-04T02:01:12.073Z,12.32
2024-03-04T02:07:18.502Z,11.77
2024-03-04T02:13:23.159Z,10.05
2024-03-04T02:19:26.728Z,12.10
2024-03-04T02:25:36.901Z,10.10
2024-03-04T02:31:41.454Z,10.15
2024-03-04T02:37:46.183Z,10.00
2024-03-04T02:43:52.455Z,10.75
2024-03-04T02:49:55.992Z,9.05
2024-03-04T02:55:59.494Z,8.02
2024-03-04T03:02:06.525Z,9.77
2024-03-04T03:08:10.162Z,10.15
2024-03-04T03:14:13.698Z,7.00
2024-03-04T03:20:19.573Z,6.90
2024-03-04T03:26:24.124Z,7.35
2024-03-04T03:32:27.792Z,9.15
2024-03-04T03:38:33.189Z,8.40
2024-03-04T03:44:36.831Z,6.72
2024-03-04T03:50:40.383Z,8.43
2024-03-04T03:56:45.403Z,8.25
2024-03-04T04:02:49.044Z,6.10
2024-03-04T04:08:52.627Z,6.18
2024-03-04T04:14:57.472Z,6.68
2024-03-04T04:21:00.935Z,8.02
2024-03-04T04:27:04.432Z,5.65
2024-03-04T04:33:09.409Z,11.50
2024-03-04T04:39:13.228Z,9.15
2024-03-04T04:45:16.752Z,8.68
2024-03-04T04:51:21.536Z,5.47
2024-03-04T04:57:25.018Z,6.53
2024-03-04T05:03:41.378Z,5.80
2024-03-04T05:09:54.234Z,5.88
2024-03-04T05:15:57.973Z,4.82
2024-03-04T05:22:01.464Z,5.03
2024-03-04T05:28:06.727Z,6.55
2024-03-04T05:34:10.220Z,4.68
2024-03-04T05:40:16.232Z,4.45
2024-03-04T05:46:23.792Z,9.10
2024-03-04T05:52:27.396Z,6.15
2024-03-04T05:58:30.944Z,5.10
2024-03-04T06:04:37.624Z,8.25
2024-03-04T06:10:43.317Z,6.20
2024-03-04T06:16:47.098Z,6.03
2024-03-04T06:22:52.419Z,6.65
2024-03-04T06:28:55.892Z,4.50
2024-03-04T06:34:59.800Z,7.43
2024-03-04T06:41:04.728Z,5.45
2024-03-04T06:47:08.394Z,5.35
2024-03-04T06:53:11.842Z,7.28
2024-03-04T06:59:16.797Z,5.50
2024-03-04T07:05:20.314Z,6.75
2024-03-04T07:11:23.865Z,9.27
2024-03-04T07:17:29.070Z,8.73
2024-03-04T07:23:32.609Z,7.43
2024-03-04T07:29:41.039Z,8.32
2024-03-04T07:35:48.450Z,9.52
2024-03-04T07:41:51.973Z,11.07
2024-03-04T07:47:55.589Z,10.90
2024-03-04T07:54:00.847Z,11.10
2024-03-04T08:00:07.356Z,9.88
2024-03-04T08:06:12.141Z,10.00
2024-03-04T08:12:17.880Z,11.18
2024-03-04T08:18:23.526Z,9.48
2024-03-04T08:24:27.020Z,12.90
2024-03-04T08:30:31.898Z,10.70
2024-03-04T08:36:35.747Z,10.95
2024-03-04T08:42:42.655Z,8.98
2024-03-04T08:48:47.538Z,12.48
2024-03-04T08:54:51.026Z,9.65
2024-03-04T09:00:54.517Z,11.30
2024-03-04T09:06:59.622Z,10.40
2024-03-04T09:13:03.157Z,7.43
2024-03-04T09:19:07.205Z,9.73
2024-03-04T09:25:12.120Z,9.40
2024-03-04T09:31:15.605Z,6.78
2024-03-04T09:37:19.157Z,6.45
2024-03-04T09:43:29.111Z,5.30
2024-03-04T09:49:32.729Z,6.93
2024-03-04T09:55:36.576Z,4.70
2024-03-04T10:01:41.550Z,5.07
2024-03-04T10:07:45.242Z,5.95
2024-03-04T10:13:49.251Z,5.30
2024-03-04T10:20:00.997Z,3.58
2024-03-04T10:26:10.867Z,5.03
2024-03-04T10:32:19.737Z,5.30
2024-03-04T10:38:24.703Z,17.40
2024-03-04T10:44:28.470Z,4.93
2024-03-04T10:50:32.353Z,4.05
2024-03-04T10:56:37.948Z,5.22
2024-03-04T11:02:44.665Z,3.95
2024-03-04T11:08:50.313Z,3.00
2024-03-04T11:14:57.542Z,3.22
2024-03-04T11:21:01.183Z,2.75
2024-03-04T11:27:05.309Z,1.73
2024-03-04T11:33:27.327Z,5.30
2024-03-04T11:39:32.160Z,2.30
2024-03-04T11:45:36.120Z,2.45
2024-03-04T11:51:47.595Z,3.00
2024-03-04T11:57:52.660Z,3.80
2024-03-04T12:03:56.084Z,6.15
2024-03-04T12:10:08.834Z,1.85
2024-03-04T12:16:17.809Z,1.98
2024-03-04T12:22:25.348Z,2.20
2024-03-04T12:28:29.327Z,4.32
2024-03-04T12:34:34.296Z,9.18
2024-03-04T12:40:37.882Z,2.35
2024-03-04T12:46:41.404Z,18.10
2024-03-04T12:52:46.441Z,8.15
2024-03-04T12:58:49.967Z,14.02
2024-03-04T13:04:54.597Z,5.22
2024-03-04T13:10:59.997Z,3.10
2024-03-04T13:17:03.832Z,5.35
2024-03-04T13:23:07.282Z,2.33
2024-03-04T13:29:12.621Z,2.58
2024-03-04T13:35:16.103Z,2.78
2024-03-04T13:41:19.546Z,2.33
2024-03-04T13:47:24.445Z,4.13
2024-03-04T13:53:28.146Z,2.30
2024-03-04T13:59:34.567Z,1.80
2024-03-04T14:05:40.289Z,2.28
2024-03-04T14:11:43.828Z,2.30
2024-03-04T14:17:47.383Z,1.92
2024-03-04T14:23:52.227Z,1.95
2024-03-04T14:29:59.943Z,3.78
2024-03-04T14:36:03.786Z,2.33
2024-03-04T14:42:08.668Z,4.10
2024-03-04T14:48:12.227Z,3.20
2024-03-04T14:54:15.694Z,1.50
2024-03-04T15:00:21.135Z,2.85
2024-03-04T15:06:24.757Z,3.50
2024-03-04T15:12:28.260Z,3.42
2024-03-04T15:18:36.756Z,2.25
2024-03-04T15:24:40.956Z,1.73
2024-03-04T15:30:44.751Z,1.70
2024-03-04T15:36:51.122Z,1.10
2024-03-04T15:42:55.292Z,2.17
2024-03-04T15:48:58.753Z,2.63
2024-03-04T15:55:03.957Z,3.83
2024-03-04T16:01:07.522Z,2.28
2024-03-04T16:07:11.205Z,1.58
2024-03-04T16:13:16.116Z,2.95
2024-03-04T16:19:19.639Z,1.58
2024-03-04T16:25:23.197Z,1.67
2024-03-04T16:31:29.146Z,2.90
2024-03-04T16:37:34.064Z,1.42
2024-03-04T16:43:39.638Z,2.63
2024-03-04T16:49:47.940Z,2.72
2024-03-04T16:55:51.601Z,1.95
2024-03-04T17:01:55.234Z,1.45
2024-03-04T17:08:00.247Z,4.03
2024-03-04T17:14:03.844Z,2.85
2024-03-04T17:20:10.174Z,2.00
2024-03-04T17:26:15.065Z,4.25
2024-03-04T17:32:18.528Z,3.80
2024-03-04T17:38:22.238Z,2.53
2024-03-04T17:44:27.026Z,3.58
2024-03-04T17:50:30.547Z,2.75
2024-03-04T17:56:35.126Z,5.63
2024-03-04T18:02:40.054Z,5.32
2024-03-04T18:08:43.583Z,4.43
2024-03-04T18:14:47.083Z,5.18
2024-03-04T18:20:52.442Z,4.80
2024-03-04T18:26:55.980Z,4.78
2024-03-04T18:32:59.697Z,4.32
2024-03-04T18:39:04.984Z,4.68
2024-03-04T18:45:10.120Z,5.60
2024-03-04T18:51:15.022Z,9.43
2024-03-04T18:57:19.939Z,7.03
2024-03-04T19:03:23.543Z,6.53
2024-03-04T19:09:27.199Z,8.60
2024-03-04T19:15:32.500Z,9.32
2024-03-04T19:21:36.008Z,10.55
2024-03-04T19:27:39.497Z,14.02
2024-03-04T19:33:44.371Z,9.63
2024-03-04T19:39:47.884Z,8.85
2024-03-04T19:45:51.389Z,9.57
2024-03-04T19:51:57.737Z,7.57
2024-03-04T19:58:02.681Z,9.48
2024-03-04T20:04:06.515Z,8.52
2024-03-04T20:10:12.362Z,9.18
2024-03-04T20:16:16.398Z,6.65
2024-03-04T20:22:20.055Z,7.72
2024-03-04T20:28:24.987Z,9.48
2024-03-04T20:34:28.707Z,9.88
2024-03-04T20:40:34.189Z,8.60
2024-03-04T20:46:39.080Z,9.82
2024-03-04T20:52:42.682Z,12.00
2024-03-04T20:58:46.412Z,10.82
2024-03-04T21:04:51.379Z,9.13
2024-03-04T21:10:54.952Z,10.52
2024-03-04T21:17:00.359Z,12.25
2024-03-04T21:23:05.769Z,10.77
2024-03-04T21:29:09.277Z,10.70
2024-03-04T21:35:13.994Z,12.38
2024-03-04T21:41:19.003Z,10.63
2024-03-04T21:47:22.707Z,10.65
2024-03-04T21:53:26.317Z,10.73
2024-03-04T21:59:31.139Z,12.10
2024-03-04T22:05:35.649Z,13.10
2024-03-04T22:11:46.444Z,11.27
2024-03-04T22:17:52.018Z,13.60
2024-03-04T22:23:55.489Z,14.60
2024-03-04T22:29:59.366Z,13.30
2024-03-04T22:36:05.763Z,11.18
2024-03-04T22:42:11.006Z,11.95
2024-03-04T22:48:14.909Z,11.75
2024-03-04T22:54:19.773Z,14.05
2024-03-04T23:00:28.126Z,12.18
2024-03-04T23:06:31.747Z,12.30
2024-03-04T23:12:37.321Z,15.70
2024-03-04T23:18:41.955Z,12.02
2024-03-04T23:24:45.443Z,10.23
2024-03-04T23:30:50.552Z,13.45
2024-03-04T23:36:55.206Z,11.40
2024-03-04T23:42:58.828Z,12.60
2024-03-04T23:49:05.159Z,9.55
2024-03-04T23:55:09.141Z,12.77
